createdAt,value
2023-02-01T00:01:09.958Z,4.00
2023-02-01T00:06:11.901Z,4.00
2023-02-01T00:11:14.364Z,4.00
2023-02-01T00:16:18.718Z,4.00
2023-02-01T00:21:21.422Z,4.00
2023-02-01T00:26:41.411Z,4.00
2023-02-01T00:31:44.326Z,4.00
2023-02-01T00:36:46.982Z,4.10
2023-02-01T00:41:48.968Z,4.10
2023-02-01T00:46:50.928Z,4.10
2023-02-01T00:51:52.830Z,4.10
2023-02-01T00:56:54.690Z,4.20
2023-02-01T01:01:56.566Z,4.20
2023-02-01T01:06:58.492Z,4.10
2023-02-01T01:12:03.583Z,4.10
2023-02-01T01:17:05.544Z,4.10
2023-02-01T01:22:07.471Z,4.00
2023-02-01T01:27:09.304Z,4.00
2023-02-01T01:32:11.137Z,4.00
2023-02-01T01:37:12.958Z,4.00
2023-02-01T01:42:14.868Z,4.00
2023-02-01T01:47:17.227Z,3.90
2023-02-01T01:52:19.841Z,3.90
2023-02-01T01:57:34.695Z,3.90
2023-02-01T02:02:38.028Z,3.90
2023-02-01T02:07:43.406Z,3.90
2023-02-01T02:12:47.568Z,3.90
2023-02-01T02:18:42.003Z,3.90
2023-02-01T02:24:02.370Z,3.90
2023-02-01T02:29:41.395Z,3.80
2023-02-01T02:35:08.718Z,3.80
2023-02-01T02:40:23.005Z,3.90
2023-02-01T02:45:47.797Z,3.90
2023-02-01T02:51:24.544Z,4.00
2023-02-01T02:56:45.432Z,4.00
2023-02-01T03:02:09.070Z,4.00
2023-02-01T03:07:17.018Z,4.00
2023-02-01T03:12:37.356Z,4.00
2023-02-01T03:17:42.943Z,4.00
2023-02-01T03:22:45.101Z,4.10
2023-02-01T03:27:54.736Z,4.10
2023-02-01T03:33:02.009Z,4.10
2023-02-01T03:38:28.981Z,4.10
2023-02-01T03:43:33.705Z,4.10
2023-02-01T03:48:36.863Z,4.00
2023-02-01T03:53:39.975Z,3.90
2023-02-01T03:58:41.843Z,3.90
2023-02-01T04:03:43.656Z,3.90
2023-02-01T04:08:45.528Z,3.90
2023-02-01T04:13:47.437Z,3.90
2023-02-01T04:18:49.255Z,3.90
2023-02-01T04:23:51.641Z,3.80
2023-02-01T04:28:53.846Z,3.90
2023-02-01T04:33:58.580Z,3.90
2023-02-01T04:39:00.459Z,3.90
2023-02-01T04:44:02.348Z,4.10
2023-02-01T04:49:04.448Z,4.10
2023-02-01T04:54:06.297Z,4.10
2023-02-01T04:59:08.205Z,4.10
2023-02-01T05:04:10.156Z,4.20
2023-02-01T05:09:12.406Z,4.20
2023-02-01T05:14:14.281Z,4.20
2023-02-01T05:19:16.259Z,4.20
2023-02-01T05:24:21.504Z,4.30
2023-02-01T05:29:24.274Z,4.30
2023-02-01T05:34:26.141Z,4.30
2023-02-01T05:39:27.979Z,4.40
2023-02-01T05:44:29.897Z,4.40
2023-02-01T05:49:31.779Z,4.40
2023-02-01T05:54:33.711Z,4.50
2023-02-01T05:59:37.032Z,4.50
2023-02-01T06:04:40.020Z,4.40
2023-02-01T06:09:41.851Z,4.40
2023-02-01T06:14:44.391Z,4.50
2023-02-01T06:19:47.264Z,4.50
2023-02-01T06:24:49.814Z,4.50
2023-02-01T06:29:51.767Z,4.50
2023-02-01T06:34:53.614Z,4.60
2023-02-01T06:39:55.764Z,4.60
2023-02-01T06:44:57.627Z,4.70
2023-02-01T06:50:09.310Z,4.70
2023-02-01T06:55:14.433Z,4.70
2023-02-01T07:00:16.683Z,4.70
2023-02-01T07:05:19.628Z,4.70
2023-02-01T07:10:21.882Z,4.60
2023-02-01T07:15:25.412Z,4.60
2023-02-01T07:20:27.644Z,4.70
2023-02-01T07:25:29.493Z,4.70
2023-02-01T07:30:31.342Z,4.80
2023-02-01T07:35:33.173Z,4.80
2023-02-01T07:40:35.043Z,4.90
2023-02-01T07:45:37.854Z,4.90
2023-02-01T07:50:39.718Z,4.90
2023-02-01T07:55:41.884Z,5.00
2023-02-01T08:01:02.407Z,5.00
2023-02-01T08:06:05.451Z,5.00
2023-02-01T08:11:07.933Z,5.10
2023-02-01T08:16:11.318Z,5.10
2023-02-01T08:21:18.433Z,5.10
2023-02-01T08:26:27.266Z,5.20
2023-02-01T08:31:30.115Z,5.40
2023-02-01T08:36:32.437Z,5.50
2023-02-01T08:41:35.137Z,5.80
2023-02-01T08:46:36.981Z,5.90
2023-02-01T08:51:38.980Z,6.00
2023-02-01T08:56:40.835Z,6.10
2023-02-01T09:01:43.126Z,6.00
2023-02-01T09:06:44.996Z,5.90
2023-02-01T09:11:46.838Z,5.80
2023-02-01T09:16:48.734Z,5.80
2023-02-01T09:21:51.325Z,5.80
2023-02-01T09:26:53.674Z,5.80
2023-02-01T09:32:03.487Z,5.80
2023-02-01T09:37:05.755Z,5.70
2023-02-01T09:42:07.737Z,5.60
2023-02-01T09:47:15.333Z,5.50
2023-02-01T09:52:20.723Z,5.50
2023-02-01T09:57:27.723Z,5.40
2023-02-01T10:02:29.846Z,5.40
2023-02-01T10:07:35.263Z,5.40
2023-02-01T10:12:46.537Z,5.40
2023-02-01T10:17:48.366Z,5.50
2023-02-01T10:23:13.767Z,5.60
2023-02-01T10:28:17.406Z,5.60
2023-02-01T10:33:20.500Z,5.60
2023-02-01T10:38:29.191Z,5.60
2023-02-01T10:43:32.077Z,5.70
2023-02-01T10:48:34.059Z,5.80
2023-02-01T10:53:47.528Z,5.90
2023-02-01T10:58:49.572Z,6.10
2023-02-01T11:03:59.959Z,6.10
2023-02-01T11:09:11.922Z,6.10
2023-02-01T11:14:25.899Z,6.30
2023-02-01T11:19:28.516Z,6.70
2023-02-01T11:24:34.416Z,6.80
2023-02-01T11:29:39.212Z,6.60
2023-02-01T11:35:05.399Z,6.40
2023-02-01T11:40:19.457Z,6.40
2023-02-01T11:45:32.124Z,6.40
2023-02-01T11:50:37.031Z,6.40
2023-02-01T11:55:45.232Z,6.40
2023-02-01T12:01:14.612Z,6.40
2023-02-01T12:06:49.013Z,6.60
2023-02-01T12:12:26.722Z,6.70
2023-02-01T12:17:55.985Z,6.60
2023-02-01T12:23:27.513Z,6.50
2023-02-01T12:28:41.507Z,6.40
2023-02-01T12:34:15.815Z,6.30
2023-02-01T12:40:10.181Z,6.20
2023-02-01T12:45:40.747Z,6.10
2023-02-01T12:50:56.682Z,6.10
2023-02-01T12:56:03.168Z,6.10
2023-02-01T13:01:09.797Z,6.10
2023-02-01T13:06:18.595Z,6.10
2023-02-01T13:11:20.480Z,6.40
2023-02-01T13:16:29.830Z,6.80
2023-02-01T13:21:35.318Z,7.50
2023-02-01T13:26:40.165Z,7.90
2023-02-01T13:32:07.025Z,8.00
2023-02-01T13:37:23.771Z,8.00
2023-02-01T13:42:30.991Z,8.00
2023-02-01T13:47:35.385Z,7.90
2023-02-01T13:52:59.601Z,7.90
2023-02-01T13:58:10.435Z,7.90
2023-02-01T14:03:18.954Z,7.80
2023-02-01T14:08:40.825Z,7.80
2023-02-01T14:13:43.015Z,7.70
2023-02-01T14:18:47.289Z,7.80
2023-02-01T14:24:17.144Z,7.80
2023-02-01T14:29:31.178Z,7.80
2023-02-01T14:34:35.700Z,7.70
2023-02-01T14:39:46.374Z,7.60
2023-02-01T14:44:59.376Z,7.50
2023-02-01T14:50:13.775Z,7.30
2023-02-01T14:55:37.273Z,7.20
2023-02-01T15:01:06.925Z,7.10
2023-02-01T15:06:29.679Z,7.00
2023-02-01T15:11:32.054Z,6.90
2023-02-01T15:16:34.285Z,6.90
2023-02-01T15:21:47.733Z,6.90
2023-02-01T15:26:50.637Z,6.70
2023-02-01T15:31:53.786Z,6.50
2023-02-01T15:37:06.439Z,6.40
2023-02-01T15:42:23.126Z,6.20
2023-02-01T15:47:38.057Z,6.10
2023-02-01T15:52:41.235Z,5.90
2023-02-01T15:57:43.289Z,5.80
2023-02-01T16:02:55.780Z,5.70
2023-02-01T16:08:09.060Z,5.60
2023-02-01T16:13:11.355Z,5.40
2023-02-01T16:18:22.542Z,5.30
2023-02-01T16:23:24.406Z,5.30
2023-02-01T16:28:27.168Z,5.20
2023-02-01T16:33:29.134Z,5.20
2023-02-01T16:38:32.478Z,5.20
2023-02-01T16:43:34.433Z,5.10
2023-02-01T16:48:43.412Z,5.10
2023-02-01T16:53:54.156Z,5.20
2023-02-01T16:59:03.174Z,5.20
2023-02-01T17:04:05.120Z,5.20
2023-02-01T17:09:07.417Z,5.20
2023-02-01T17:14:22.564Z,5.30
2023-02-01T17:19:25.358Z,5.30
2023-02-01T17:24:46.627Z,5.20
2023-02-01T17:29:53.972Z,5.20
2023-02-01T17:34:55.988Z,5.10
2023-02-01T17:39:58.396Z,5.10
2023-02-01T17:45:21.050Z,5.00
2023-02-01T17:50:23.237Z,5.00
2023-02-01T17:55:26.584Z,5.00
2023-02-01T18:00:28.617Z,5.00
2023-02-01T18:05:43.063Z,5.10
2023-02-01T18:10:45.026Z,5.10
2023-02-01T18:15:47.052Z,5.10
2023-02-01T18:20:49.550Z,5.10
2023-02-01T18:25:52.562Z,5.20
2023-02-01T18:30:54.582Z,5.10
2023-02-01T18:35:56.587Z,5.00
2023-02-01T18:40:58.657Z,4.90
2023-02-01T18:46:00.637Z,4.60
2023-02-01T18:51:02.701Z,4.50
2023-02-01T18:56:04.953Z,4.50
2023-02-01T19:01:16.131Z,4.50
2023-02-01T19:06:18.135Z,4.40
2023-02-01T19:11:20.144Z,4.40
2023-02-01T19:16:24.789Z,4.40
2023-02-01T19:21:26.839Z,4.50
2023-02-01T19:26:33.313Z,4.50
2023-02-01T19:31:35.456Z,4.50
2023-02-01T19:36:42.462Z,4.50
2023-02-01T19:41:44.714Z,4.50
2023-02-01T19:46:46.701Z,4.50
2023-02-01T19:51:48.767Z,4.50
2023-02-01T19:56:51.188Z,4.50
2023-02-01T20:01:52.315Z,4.70
2023-02-01T20:06:56.311Z,4.70
2023-02-01T20:11:59.346Z,4.70
2023-02-01T20:17:02.692Z,4.60
2023-02-01T20:22:04.638Z,4.60
2023-02-01T20:27:13.348Z,4.60
2023-02-01T20:32:17.308Z,4.60
2023-02-01T20:37:20.118Z,4.60
2023-02-01T20:42:22.143Z,4.60
2023-02-01T20:47:24.050Z,4.70
2023-02-01T20:52:25.987Z,4.70
2023-02-01T20:57:27.893Z,4.80
2023-02-01T21:02:29.886Z,4.80
2023-02-01T21:07:35.072Z,4.80
2023-02-01T21:12:37.454Z,4.80
2023-02-01T21:17:40.847Z,4.80
2023-02-01T21:22:42.825Z,4.80
2023-02-01T21:27:44.729Z,4.70
2023-02-01T21:32:49.740Z,4.70
2023-02-01T21:37:51.728Z,4.70
2023-02-01T21:42:53.687Z,4.70
2023-02-01T21:47:56.760Z,4.80
2023-02-01T21:52:59.243Z,4.80
2023-02-01T21:58:01.148Z,4.90
2023-02-01T22:03:02.979Z,4.90
2023-02-01T22:08:06.312Z,4.90
2023-02-01T22:13:09.221Z,5.00
2023-02-01T22:18:11.109Z,5.10
2023-02-01T22:23:12.953Z,5.10
2023-02-01T22:28:31.794Z,5.10
2023-02-01T22:33:35.173Z,5.10
2023-02-01T22:38:43.442Z,5.10
2023-02-01T22:43:46.617Z,4.80
2023-02-01T22:48:53.251Z,3.80
2023-02-01T22:53:58.429Z,2.90
2023-02-01T22:59:04.059Z,2.50
2023-02-01T23:04:09.059Z,2.40
2023-02-01T23:09:22.340Z,2.40
2023-02-01T23:14:24.473Z,2.50
2023-02-01T23:19:26.287Z,2.60
2023-02-01T23:24:28.105Z,2.60
2023-02-01T23:29:29.924Z,2.60
2023-02-01T23:34:31.832Z,2.60
2023-02-01T23:39:33.836Z,2.70
2023-02-01T23:44:35.825Z,2.80
2023-02-01T23:49:37.782Z,2.80
2023-02-01T23:54:39.688Z,2.80
2023-02-01T23:59:41.486Z,2.70
